sensor_id;sensor_type;location;lat;lon;timestamp;pressure;altitude;pressure_sealevel;temperature;humidity
56668;BME280;42542;48.360;10.958;2023-01-28T00:01:34;96505.81;;;-0.97;98.41
56668;BME280;42542;48.360;10.958;2023-01-28T00:04:35;96503.84;;;-0.93;98.97
56668;BME280;42542;48.360;10.958;2023-01-28T00:07:37;96495.88;;;-0.92;98.67
56668;BME280;42542;48.360;10.958;2023-01-28T00:10:39;96498.34;;;-0.89;98.58
56668;BME280;42542;48.360;10.958;2023-01-28T00:13:42;96492.91;;;-0.86;98.58
56668;BME280;42542;48.360;10.958;2023-01-28T00:16:43;96493.97;;;-0.88;97.86
56668;BME280;42542;48.360;10.958;2023-01-28T00:19:45;96494.88;;;-0.89;97.83
56668;BME280;42542;48.360;10.958;2023-01-28T00:22:47;96490.63;;;-0.92;98.06
56668;BME280;42542;48.360;10.958;2023-01-28T00:25:52;96491.50;;;-0.91;97.79
56668;BME280;42542;48.360;10.958;2023-01-28T00:28:54;96496.56;;;-0.88;98.06
56668;BME280;42542;48.360;10.958;2023-01-28T00:31:56;96495.72;;;-0.89;98.00
56668;BME280;42542;48.360;10.958;2023-01-28T00:34:58;96495.66;;;-0.87;97.61
56668;BME280;42542;48.360;10.958;2023-01-28T00:37:59;96497.44;;;-0.88;97.54
56668;BME280;42542;48.360;10.958;2023-01-28T00:41:13;96500.91;;;-0.87;97.74
56668;BME280;42542;48.360;10.958;2023-01-28T00:44:15;96503.41;;;-0.86;97.87
56668;BME280;42542;48.360;10.958;2023-01-28T00:47:16;96491.50;;;-0.91;97.26
56668;BME280;42542;48.360;10.958;2023-01-28T00:50:19;96498.16;;;-0.86;97.34
56668;BME280;42542;48.360;10.958;2023-01-28T00:53:21;96493.75;;;-0.85;97.81
56668;BME280;42542;48.360;10.958;2023-01-28T00:56:23;96491.25;;;-0.87;97.94
56668;BME280;42542;48.360;10.958;2023-01-28T00:59:25;96495.47;;;-0.84;97.53
56668;BME280;42542;48.360;10.958;2023-01-28T01:02:27;96495.38;;;-0.83;97.45
56668;BME280;42542;48.360;10.958;2023-01-28T01:05:29;96494.53;;;-0.83;97.52
56668;BME280;42542;48.360;10.958;2023-01-28T01:08:30;96497.16;;;-0.83;97.68
56668;BME280;42542;48.360;10.958;2023-01-28T01:11:35;96498.84;;;-0.82;98.00
56668;BME280;42542;48.360;10.958;2023-01-28T01:14:36;96506.66;;;-0.81;97.81
56668;BME280;42542;48.360;10.958;2023-01-28T01:17:40;96507.66;;;-0.83;97.72
56668;BME280;42542;48.360;10.958;2023-01-28T01:20:42;96509.44;;;-0.84;97.72
56668;BME280;42542;48.360;10.958;2023-01-28T01:23:46;96505.97;;;-0.84;97.56
56668;BME280;42542;48.360;10.958;2023-01-28T01:26:47;96506.81;;;-0.84;97.50
56668;BME280;42542;48.360;10.958;2023-01-28T01:29:49;96505.03;;;-0.83;97.69
56668;BME280;42542;48.360;10.958;2023-01-28T01:32:51;96510.28;;;-0.83;97.60
56668;BME280;42542;48.360;10.958;2023-01-28T01:35:53;96518.16;;;-0.83;97.61
56668;BME280;42542;48.360;10.958;2023-01-28T01:38:55;96521.69;;;-0.84;97.53
56668;BME280;42542;48.360;10.958;2023-01-28T01:41:56;96523.41;;;-0.83;97.44
56668;BME280;42542;48.360;10.958;2023-01-28T01:45:04;96521.69;;;-0.84;97.35
56668;BME280;42542;48.360;10.958;2023-01-28T01:48:18;96532.19;;;-0.84;97.63
56668;BME280;42542;48.360;10.958;2023-01-28T01:51:25;96528.66;;;-0.83;97.30
56668;BME280;42542;48.360;10.958;2023-01-28T01:54:29;96532.97;;;-0.82;97.39
56668;BME280;42542;48.360;10.958;2023-01-28T01:57:33;96527.72;;;-0.82;97.66
56668;BME280;42542;48.360;10.958;2023-01-28T02:00:37;96531.19;;;-0.82;96.84
56668;BME280;42542;48.360;10.958;2023-01-28T02:03:51;96524.25;;;-0.83;96.72
56668;BME280;42542;48.360;10.958;2023-01-28T02:06:54;96524.31;;;-0.84;96.93
56668;BME280;42542;48.360;10.958;2023-01-28T02:09:57;96524.31;;;-0.84;96.43
56668;BME280;42542;48.360;10.958;2023-01-28T02:12:58;96527.81;;;-0.84;97.15
56668;BME280;42542;48.360;10.958;2023-01-28T02:16:02;96522.91;;;-0.90;97.11
56668;BME280;42542;48.360;10.958;2023-01-28T02:19:06;96526.94;;;-0.84;96.90
56668;BME280;42542;48.360;10.958;2023-01-28T02:28:59;96531.53;;;-0.88;96.65
56668;BME280;42542;48.360;10.958;2023-01-28T02:32:20;96534.16;;;-0.88;96.64
56668;BME280;42542;48.360;10.958;2023-01-28T02:35:36;96541.00;;;-0.85;97.35
56668;BME280;42542;48.360;10.958;2023-01-28T02:38:46;96545.31;;;-0.84;96.83
56668;BME280;42542;48.360;10.958;2023-01-28T02:41:52;96542.78;;;-0.86;96.33
56668;BME280;42542;48.360;10.958;2023-01-28T02:44:57;96551.50;;;-0.85;96.81
56668;BME280;42542;48.360;10.958;2023-01-28T02:47:59;96551.34;;;-0.82;97.54
56668;BME280;42542;48.360;10.958;2023-01-28T02:51:26;96551.41;;;-0.84;96.56
56668;BME280;42542;48.360;10.958;2023-01-28T02:54:40;96544.31;;;-0.82;96.91
56668;BME280;42542;48.360;10.958;2023-01-28T02:57:59;96544.31;;;-0.82;96.69
56668;BME280;42542;48.360;10.958;2023-01-28T03:04:28;96546.75;;;-0.79;96.81
56668;BME280;42542;48.360;10.958;2023-01-28T03:07:31;96549.38;;;-0.79;96.83
56668;BME280;42542;48.360;10.958;2023-01-28T03:10:35;96551.34;;;-0.82;96.22
56668;BME280;42542;48.360;10.958;2023-01-28T03:13:38;96555.59;;;-0.80;96.81
56668;BME280;42542;48.360;10.958;2023-01-28T03:17:00;96548.63;;;-0.81;96.54
56668;BME280;42542;48.360;10.958;2023-01-28T03:20:24;96558.22;;;-0.80;96.43
56668;BME280;42542;48.360;10.958;2023-01-28T03:27:23;96553.88;;;-0.81;96.66
56668;BME280;42542;48.360;10.958;2023-01-28T03:31:02;96550.34;;;-0.80;97.11
56668;BME280;42542;48.360;10.958;2023-01-28T03:34:28;96559.22;;;-0.82;96.98
56668;BME280;42542;48.360;10.958;2023-01-28T03:37:49;96555.75;;;-0.83;96.59
56668;BME280;42542;48.360;10.958;2023-01-28T03:40:57;96567.84;;;-0.80;96.57
56668;BME280;42542;48.360;10.958;2023-01-28T03:44:01;96560.06;;;-0.82;96.52
56668;BME280;42542;48.360;10.958;2023-01-28T03:47:23;96570.47;;;-0.80;97.05
56668;BME280;42542;48.360;10.958;2023-01-28T03:50:26;96580.13;;;-0.81;96.43
56668;BME280;42542;48.360;10.958;2023-01-28T03:53:31;96578.34;;;-0.80;96.58
56668;BME280;42542;48.360;10.958;2023-01-28T03:56:33;96574.03;;;-0.81;96.57
56668;BME280;42542;48.360;10.958;2023-01-28T03:59:38;96567.00;;;-0.81;96.85
56668;BME280;42542;48.360;10.958;2023-01-28T04:02:40;96572.25;;;-0.81;96.56
56668;BME280;42542;48.360;10.958;2023-01-28T04:06:05;96574.88;;;-0.81;97.06
56668;BME280;42542;48.360;10.958;2023-01-28T04:09:40;96583.59;;;-0.80;96.53
56668;BME280;42542;48.360;10.958;2023-01-28T04:12:59;96587.91;;;-0.79;96.64
56668;BME280;42542;48.360;10.958;2023-01-28T04:16:01;96589.59;;;-0.78;96.92
56668;BME280;42542;48.360;10.958;2023-01-28T04:19:08;96584.34;;;-0.78;97.07
56668;BME280;42542;48.360;10.958;2023-01-28T04:22:10;96584.34;;;-0.78;96.20
56668;BME280;42542;48.360;10.958;2023-01-28T04:25:14;96584.34;;;-0.78;96.40
56668;BME280;42542;48.360;10.958;2023-01-28T04:28:17;96584.34;;;-0.78;96.49
56668;BME280;42542;48.360;10.958;2023-01-28T04:31:18;96580.88;;;-0.79;96.46
56668;BME280;42542;48.360;10.958;2023-01-28T04:34:32;96588.84;;;-0.80;96.27
56668;BME280;42542;48.360;10.958;2023-01-28T04:37:44;96594.94;;;-0.80;96.37
56668;BME280;42542;48.360;10.958;2023-01-28T04:41:06;96598.50;;;-0.81;96.59
56668;BME280;42542;48.360;10.958;2023-01-28T04:44:09;96597.47;;;-0.78;96.94
56668;BME280;42542;48.360;10.958;2023-01-28T04:47:36;96602.72;;;-0.78;96.95
56668;BME280;42542;48.360;10.958;2023-01-28T04:50:58;96600.88;;;-0.76;96.81
56668;BME280;42542;48.360;10.958;2023-01-28T04:54:08;96604.34;;;-0.75;96.27
56668;BME280;42542;48.360;10.958;2023-01-28T04:57:11;96610.59;;;-0.78;95.89
56668;BME280;42542;48.360;10.958;2023-01-28T05:00:13;96607.97;;;-0.78;96.54
56668;BME280;42542;48.360;10.958;2023-01-28T05:03:14;96614.97;;;-0.79;95.92
56668;BME280;42542;48.360;10.958;2023-01-28T05:06:16;96607.97;;;-0.78;96.69
56668;BME280;42542;48.360;10.958;2023-01-28T05:09:19;96613.22;;;-0.78;96.35
56668;BME280;42542;48.360;10.958;2023-01-28T05:12:24;96617.59;;;-0.79;95.82
56668;BME280;42542;48.360;10.958;2023-01-28T05:15:25;96614.91;;;-0.77;96.10
56668;BME280;42542;48.360;10.958;2023-01-28T05:18:28;96626.25;;;-0.76;96.18
56668;BME280;42542;48.360;10.958;2023-01-28T05:21:39;96608.81;;;-0.77;96.04
56668;BME280;42542;48.360;10.958;2023-01-28T05:25:08;96627.19;;;-0.77;96.55
56668;BME280;42542;48.360;10.958;2023-01-28T05:28:09;96628.03;;;-0.77;95.95
56668;BME280;42542;48.360;10.958;2023-01-28T05:31:11;96635.84;;;-0.75;96.22
56668;BME280;42542;48.360;10.958;2023-01-28T05:34:13;96634.97;;;-0.76;95.75
56668;BME280;42542;48.360;10.958;2023-01-28T05:37:15;96634.13;;;-0.76;96.20
56668;BME280;42542;48.360;10.958;2023-01-28T05:40:18;96634.97;;;-0.76;95.98
56668;BME280;42542;48.360;10.958;2023-01-28T05:43:19;96632.34;;;-0.76;96.62
56668;BME280;42542;48.360;10.958;2023-01-28T05:46:41;96637.53;;;-0.74;96.33
56668;BME280;42542;48.360;10.958;2023-01-28T05:50:05;96634.97;;;-0.76;96.03
56668;BME280;42542;48.360;10.958;2023-01-28T05:53:38;96640.94;;;-0.72;96.89
56668;BME280;42542;48.360;10.958;2023-01-28T05:56:40;96641.84;;;-0.73;96.52
56668;BME280;42542;48.360;10.958;2023-01-28T05:59:42;96637.34;;;-0.71;96.99
56668;BME280;42542;48.360;10.958;2023-01-28T06:02:44;96634.81;;;-0.73;96.29
56668;BME280;42542;48.360;10.958;2023-01-28T06:05:48;96639.13;;;-0.72;96.47
56668;BME280;42542;48.360;10.958;2023-01-28T06:08:49;96641.75;;;-0.72;96.46
56668;BME280;42542;48.360;10.958;2023-01-28T06:11:58;96648.88;;;-0.74;96.33
56668;BME280;42542;48.360;10.958;2023-01-28T06:15:00;96645.31;;;-0.73;96.52
56668;BME280;42542;48.360;10.958;2023-01-28T06:18:33;96648.88;;;-0.74;96.17
56668;BME280;42542;48.360;10.958;2023-01-28T06:21:34;96654.13;;;-0.74;96.35
56668;BME280;42542;48.360;10.958;2023-01-28T06:24:36;96662.00;;;-0.74;96.49
56668;BME280;42542;48.360;10.958;2023-01-28T06:27:39;96662.00;;;-0.74;96.90
56668;BME280;42542;48.360;10.958;2023-01-28T06:30:41;96665.47;;;-0.73;96.75
56668;BME280;42542;48.360;10.958;2023-01-28T06:33:42;96667.19;;;-0.72;97.04
56668;BME280;42542;48.360;10.958;2023-01-28T06:36:44;96662.75;;;-0.72;96.56
56668;BME280;42542;48.360;10.958;2023-01-28T06:39:46;96668.84;;;-0.71;96.65
56668;BME280;42542;48.360;10.958;2023-01-28T06:42:48;96669.88;;;-0.74;96.51
56668;BME280;42542;48.360;10.958;2023-01-28T06:45:50;96667.41;;;-0.77;96.49
56668;BME280;42542;48.360;10.958;2023-01-28T06:48:51;96676.13;;;-0.76;96.94
56668;BME280;42542;48.360;10.958;2023-01-28T06:51:53;96683.16;;;-0.77;96.57
56668;BME280;42542;48.360;10.958;2023-01-28T06:54:54;96681.44;;;-0.78;96.51
56668;BME280;42542;48.360;10.958;2023-01-28T06:57:56;96682.22;;;-0.76;97.10
56668;BME280;42542;48.360;10.958;2023-01-28T07:00:57;96691.78;;;-0.75;96.49
56668;BME280;42542;48.360;10.958;2023-01-28T07:03:59;96696.03;;;-0.72;97.09
56668;BME280;42542;48.360;10.958;2023-01-28T07:07:00;96699.50;;;-0.72;96.50
56668;BME280;42542;48.360;10.958;2023-01-28T07:10:02;96693.66;;;-0.77;97.09
56668;BME280;42542;48.360;10.958;2023-01-28T07:13:04;96707.22;;;-0.69;96.54
56668;BME280;42542;48.360;10.958;2023-01-28T07:16:06;96720.25;;;-0.67;96.82
56668;BME280;42542;48.360;10.958;2023-01-28T07:19:08;96715.94;;;-0.68;96.71
56668;BME280;42542;48.360;10.958;2023-01-28T07:22:09;96721.03;;;-0.65;96.93
56668;BME280;42542;48.360;10.958;2023-01-28T07:25:12;96717.47;;;-0.64;96.63
56668;BME280;42542;48.360;10.958;2023-01-28T07:28:14;96711.28;;;-0.63;96.96
56668;BME280;42542;48.360;10.958;2023-01-28T07:31:21;96714.94;;;-0.66;96.92
56668;BME280;42542;48.360;10.958;2023-01-28T07:34:23;96726.88;;;-0.60;96.29
56668;BME280;42542;48.360;10.958;2023-01-28T07:37:25;96728.66;;;-0.61;96.20
56668;BME280;42542;48.360;10.958;2023-01-28T07:40:27;96730.44;;;-0.61;96.73
56668;BME280;42542;48.360;10.958;2023-01-28T07:43:29;96729.50;;;-0.60;96.46
56668;BME280;42542;48.360;10.958;2023-01-28T07:46:30;96735.63;;;-0.60;96.19
56668;BME280;42542;48.360;10.958;2023-01-28T07:49:32;96735.53;;;-0.58;96.73
56668;BME280;42542;48.360;10.958;2023-01-28T07:52:35;96741.63;;;-0.58;96.07
56668;BME280;42542;48.360;10.958;2023-01-28T07:55:44;96736.47;;;-0.59;96.15
56668;BME280;42542;48.360;10.958;2023-01-28T07:58:48;96746.88;;;-0.58;95.91
56668;BME280;42542;48.360;10.958;2023-01-28T08:01:50;96742.38;;;-0.56;95.79
56668;BME280;42542;48.360;10.958;2023-01-28T08:04:55;96753.72;;;-0.55;95.73
56668;BME280;42542;48.360;10.958;2023-01-28T08:07:59;96746.63;;;-0.53;96.05
56668;BME280;42542;48.360;10.958;2023-01-28T08:11:08;96758.84;;;-0.52;95.59
56668;BME280;42542;48.360;10.958;2023-01-28T08:14:11;96760.44;;;-0.50;95.46
56668;BME280;42542;48.360;10.958;2023-01-28T08:17:12;96763.06;;;-0.50;95.66
56668;BME280;42542;48.360;10.958;2023-01-28T08:20:14;96761.28;;;-0.49;95.98
56668;BME280;42542;48.360;10.958;2023-01-28T08:23:18;96764.69;;;-0.47;96.25
56668;BME280;42542;48.360;10.958;2023-01-28T08:26:21;96763.75;;;-0.46;96.01
56668;BME280;42542;48.360;10.958;2023-01-28T08:29:23;96768.16;;;-0.47;95.51
56668;BME280;42542;48.360;10.958;2023-01-28T08:32:24;96769.78;;;-0.44;95.62
56668;BME280;42542;48.360;10.958;2023-01-28T08:35:34;96769.69;;;-0.43;95.67
56668;BME280;42542;48.360;10.958;2023-01-28T08:38:35;96765.19;;;-0.41;96.01
56668;BME280;42542;48.360;10.958;2023-01-28T08:41:37;96765.03;;;-0.37;95.44
56668;BME280;42542;48.360;10.958;2023-01-28T08:44:39;96772.06;;;-0.38;95.62
56668;BME280;42542;48.360;10.958;2023-01-28T08:50:57;96770.81;;;-0.31;95.43
56668;BME280;42542;48.360;10.958;2023-01-28T08:53:59;96784.03;;;-0.32;95.48
56668;BME280;42542;48.360;10.958;2023-01-28T08:57:01;96774.44;;;-0.33;95.14
56668;BME280;42542;48.360;10.958;2023-01-28T09:00:06;96781.31;;;-0.31;95.19
56668;BME280;42542;48.360;10.958;2023-01-28T09:03:11;96783.88;;;-0.29;95.45
56668;BME280;42542;48.360;10.958;2023-01-28T09:06:15;96763.34;;;-0.38;95.27
56668;BME280;42542;48.360;10.958;2023-01-28T09:09:19;96778.44;;;-0.26;95.00
56668;BME280;42542;48.360;10.958;2023-01-28T09:12:20;96780.72;;;-0.20;94.85
56668;BME280;42542;48.360;10.958;2023-01-28T09:15:23;96786.59;;;-0.15;94.71
56668;BME280;42542;48.360;10.958;2023-01-28T09:18:25;96773.88;;;-0.23;94.94
56668;BME280;42542;48.360;10.958;2023-01-28T09:21:29;96776.50;;;-0.23;94.37
56668;BME280;42542;48.360;10.958;2023-01-28T09:28:33;96762.88;;;-0.29;94.52
56668;BME280;42542;48.360;10.958;2023-01-28T09:32:09;96785.13;;;-0.21;94.18
56668;BME280;42542;48.360;10.958;2023-01-28T09:35:13;96803.81;;;-0.10;94.38
56668;BME280;42542;48.360;10.958;2023-01-28T09:39:00;96789.22;;;-0.15;93.74
56668;BME280;42542;48.360;10.958;2023-01-28T09:45:41;96812.38;;;-0.06;93.82
56668;BME280;42542;48.360;10.958;2023-01-28T09:48:48;96788.47;;;-0.17;93.99
56668;BME280;42542;48.360;10.958;2023-01-28T09:51:56;96811.28;;;-0.02;94.03
56668;BME280;42542;48.360;10.958;2023-01-28T09:55:40;96813.72;;;0.01;93.77
56668;BME280;42542;48.360;10.958;2023-01-28T09:59:15;96808.31;;;0.04;93.91
56668;BME280;42542;48.360;10.958;2023-01-28T10:02:36;96798.72;;;0.03;93.47
56668;BME280;42542;48.360;10.958;2023-01-28T10:05:50;96808.81;;;0.11;93.31
56668;BME280;42542;48.360;10.958;2023-01-28T10:19:23;96795.09;;;0.21;92.52
56668;BME280;42542;48.360;10.958;2023-01-28T10:22:49;96778.72;;;0.16;92.51
56668;BME280;42542;48.360;10.958;2023-01-28T10:25:57;96778.56;;;0.19;93.42
56668;BME280;42542;48.360;10.958;2023-01-28T10:29:08;96795.63;;;0.28;92.91
56668;BME280;42542;48.360;10.958;2023-01-28T10:32:29;96760.50;;;0.13;91.90
56668;BME280;42542;48.360;10.958;2023-01-28T10:35:40;96773.31;;;0.19;91.78
56668;BME280;42542;48.360;10.958;2023-01-28T10:38:54;96796.34;;;0.30;91.85
56668;BME280;42542;48.360;10.958;2023-01-28T10:42:35;96779.06;;;0.26;92.17
56668;BME280;42542;48.360;10.958;2023-01-28T10:45:43;96774.59;;;0.28;91.92
56668;BME280;42542;48.360;10.958;2023-01-28T10:48:56;96785.41;;;0.37;91.42
56668;BME280;42542;48.360;10.958;2023-01-28T10:52:10;96775.16;;;0.33;91.18
56668;BME280;42542;48.360;10.958;2023-01-28T10:55:23;96781.06;;;0.36;91.47
56668;BME280;42542;48.360;10.958;2023-01-28T10:58:30;96773.38;;;0.33;91.09
56668;BME280;42542;48.360;10.958;2023-01-28T11:01:45;96765.22;;;0.38;90.79
56668;BME280;42542;48.360;10.958;2023-01-28T11:05:19;96773.97;;;0.38;90.76
56668;BME280;42542;48.360;10.958;2023-01-28T11:08:24;96772.75;;;0.44;90.22
56668;BME280;42542;48.360;10.958;2023-01-28T11:34:04;96770.59;;;0.66;90.05
56668;BME280;42542;48.360;10.958;2023-01-28T11:37:13;96782.59;;;0.72;89.54
56668;BME280;42542;48.360;10.958;2023-01-28T11:40:19;96782.47;;;0.73;89.43
56668;BME280;42542;48.360;10.958;2023-01-28T11:43:24;96790.19;;;0.76;89.22
56668;BME280;42542;48.360;10.958;2023-01-28T11:46:41;96784.84;;;0.78;88.91
56668;BME280;42542;48.360;10.958;2023-01-28T11:50:11;96785.72;;;0.78;89.19
56668;BME280;42542;48.360;10.958;2023-01-28T11:53:33;96788.13;;;0.82;89.08
56668;BME280;42542;48.360;10.958;2023-01-28T11:57:05;96782.63;;;0.86;89.42
56668;BME280;42542;48.360;10.958;2023-01-28T12:00:27;96781.66;;;0.87;89.32
56668;BME280;42542;48.360;10.958;2023-01-28T12:17:07;96776.88;;;0.94;88.68
56668;BME280;42542;48.360;10.958;2023-01-28T12:20:27;96778.34;;;0.99;88.81
56668;BME280;42542;48.360;10.958;2023-01-28T12:27:20;96778.63;;;1.09;88.39
56668;BME280;42542;48.360;10.958;2023-01-28T12:41:03;96775.16;;;1.08;87.48
56668;BME280;42542;48.360;10.958;2023-01-28T12:44:12;96770.56;;;1.12;87.15
56668;BME280;42542;48.360;10.958;2023-01-28T12:47:21;96767.94;;;1.12;87.02
56668;BME280;42542;48.360;10.958;2023-01-28T12:50:32;96774.59;;;1.17;86.79
56668;BME280;42542;48.360;10.958;2023-01-28T12:53:47;96755.53;;;1.14;87.53
56668;BME280;42542;48.360;10.958;2023-01-28T12:56:52;96766.34;;;1.24;87.39
56668;BME280;42542;48.360;10.958;2023-01-28T13:03:40;96765.41;;;1.25;85.40
56668;BME280;42542;48.360;10.958;2023-01-28T13:06:57;96770.50;;;1.28;85.96
56668;BME280;42542;48.360;10.958;2023-01-28T13:10:09;96768.72;;;1.28;85.86
56668;BME280;42542;48.360;10.958;2023-01-28T13:13:25;96777.47;;;1.29;85.58
56668;BME280;42542;48.360;10.958;2023-01-28T13:16:29;96778.41;;;1.28;85.79
56668;BME280;42542;48.360;10.958;2023-01-28T13:19:40;96774.91;;;1.27;85.98
56668;BME280;42542;48.360;10.958;2023-01-28T13:22:43;96768.88;;;1.25;86.08
56668;BME280;42542;48.360;10.958;2023-01-28T13:25:53;96775.00;;;1.26;86.44
56668;BME280;42542;48.360;10.958;2023-01-28T13:32:33;96782.72;;;1.29;86.97
56668;BME280;42542;48.360;10.958;2023-01-28T13:35:37;96788.00;;;1.29;86.83
56668;BME280;42542;48.360;10.958;2023-01-28T13:38:40;96789.94;;;1.25;86.12
56668;BME280;42542;48.360;10.958;2023-01-28T13:41:53;96791.09;;;1.21;86.89
56668;BME280;42542;48.360;10.958;2023-01-28T13:48:31;96800.78;;;1.21;87.28
56668;BME280;42542;48.360;10.958;2023-01-28T13:51:36;96792.97;;;1.19;87.26
56668;BME280;42542;48.360;10.958;2023-01-28T13:54:42;96790.41;;;1.17;86.74
56668;BME280;42542;48.360;10.958;2023-01-28T14:01:19;96792.88;;;1.21;86.61
56668;BME280;42542;48.360;10.958;2023-01-28T14:08:14;96808.66;;;1.21;86.82
56668;BME280;42542;48.360;10.958;2023-01-28T14:18:34;96819.56;;;1.14;87.18
56668;BME280;42542;48.360;10.958;2023-01-28T14:21:37;96819.72;;;1.11;86.71
56668;BME280;42542;48.360;10.958;2023-01-28T14:24:40;96823.28;;;1.10;86.92
56668;BME280;42542;48.360;10.958;2023-01-28T14:27:45;96822.44;;;1.10;86.40
56668;BME280;42542;48.360;10.958;2023-01-28T14:30:57;96814.06;;;1.03;87.11
56668;BME280;42542;48.360;10.958;2023-01-28T14:34:26;96831.28;;;1.09;87.17
56668;BME280;42542;48.360;10.958;2023-01-28T14:37:30;96835.59;;;1.10;87.20
56668;BME280;42542;48.360;10.958;2023-01-28T14:40:35;96842.84;;;1.06;86.84
56668;BME280;42542;48.360;10.958;2023-01-28T14:43:39;96835.13;;;1.03;87.12
56668;BME280;42542;48.360;10.958;2023-01-28T14:46:55;96843.94;;;1.02;87.32
56668;BME280;42542;48.360;10.958;2023-01-28T14:50:13;96843.28;;;0.99;88.50
56668;BME280;42542;48.360;10.958;2023-01-28T15:00:03;96845.31;;;0.94;88.80
56668;BME280;42542;48.360;10.958;2023-01-28T15:03:18;96852.41;;;0.93;88.83
56668;BME280;42542;48.360;10.958;2023-01-28T15:06:33;96859.69;;;0.88;89.26
56668;BME280;42542;48.360;10.958;2023-01-28T15:09:34;96863.38;;;0.86;89.61
56668;BME280;42542;48.360;10.958;2023-01-28T15:12:38;96856.47;;;0.83;89.49
56668;BME280;42542;48.360;10.958;2023-01-28T15:15:45;96860.13;;;0.81;90.01
56668;BME280;42542;48.360;10.958;2023-01-28T15:18:49;96865.38;;;0.81;89.38
56668;BME280;42542;48.360;10.958;2023-01-28T15:21:58;96871.56;;;0.79;89.45
56668;BME280;42542;48.360;10.958;2023-01-28T15:25:02;96870.75;;;0.79;90.01
56668;BME280;42542;48.360;10.958;2023-01-28T15:28:04;96877.97;;;0.75;89.67
56668;BME280;42542;48.360;10.958;2023-01-28T15:31:06;96873.72;;;0.73;89.76
56668;BME280;42542;48.360;10.958;2023-01-28T15:34:19;96879.81;;;0.73;89.98
56668;BME280;42542;48.360;10.958;2023-01-28T15:37:21;96873.81;;;0.71;90.03
56668;BME280;42542;48.360;10.958;2023-01-28T15:40:24;96878.22;;;0.71;90.23
56668;BME280;42542;48.360;10.958;2023-01-28T15:46:27;96887.06;;;0.70;90.22
56668;BME280;42542;48.360;10.958;2023-01-28T15:49:33;96895.78;;;0.70;90.61
56668;BME280;42542;48.360;10.958;2023-01-28T15:52:38;96877.03;;;0.61;91.10
56668;BME280;42542;48.360;10.958;2023-01-28T15:55:44;96893.31;;;0.67;91.36
56668;BME280;42542;48.360;10.958;2023-01-28T15:58:46;96898.59;;;0.67;91.43
56668;BME280;42542;48.360;10.958;2023-01-28T16:01:47;96906.66;;;0.64;90.89
56668;BME280;42542;48.360;10.958;2023-01-28T16:04:58;96912.09;;;0.61;91.54
56668;BME280;42542;48.360;10.958;2023-01-28T16:08:07;96902.75;;;0.56;91.20
56668;BME280;42542;48.360;10.958;2023-01-28T16:11:10;96917.50;;;0.58;91.48
56668;BME280;42542;48.360;10.958;2023-01-28T16:17:30;96913.28;;;0.56;92.77
56668;BME280;42542;48.360;10.958;2023-01-28T16:20:35;96916.84;;;0.55;93.32
56668;BME280;42542;48.360;10.958;2023-01-28T16:23:38;96912.50;;;0.54;93.55
56668;BME280;42542;48.360;10.958;2023-01-28T16:26:40;96918.69;;;0.53;94.15
56668;BME280;42542;48.360;10.958;2023-01-28T16:29:42;96919.63;;;0.52;94.12
56668;BME280;42542;48.360;10.958;2023-01-28T16:32:44;96927.63;;;0.50;94.81
56668;BME280;42542;48.360;10.958;2023-01-28T16:35:47;96928.63;;;0.48;95.33
56668;BME280;42542;48.360;10.958;2023-01-28T16:39:08;96928.69;;;0.46;94.99
56668;BME280;42542;48.360;10.958;2023-01-28T16:42:10;96931.41;;;0.45;95.87
56668;BME280;42542;48.360;10.958;2023-01-28T16:45:23;96935.72;;;0.46;95.80
56668;BME280;42542;48.360;10.958;2023-01-28T16:48:25;96933.09;;;0.46;96.15
56668;BME280;42542;48.360;10.958;2023-01-28T16:51:26;96934.81;;;0.47;96.39
56668;BME280;42542;48.360;10.958;2023-01-28T16:54:29;96936.78;;;0.43;96.69
56668;BME280;42542;48.360;10.958;2023-01-28T16:57:34;96944.72;;;0.42;96.82
56668;BME280;42542;48.360;10.958;2023-01-28T17:00:37;96942.09;;;0.42;96.64
56668;BME280;42542;48.360;10.958;2023-01-28T17:03:39;96934.13;;;0.43;97.19
56668;BME280;42542;48.360;10.958;2023-01-28T17:06:42;96925.81;;;0.35;96.91
56668;BME280;42542;48.360;10.958;2023-01-28T17:09:45;96946.50;;;0.41;97.05
56668;BME280;42542;48.360;10.958;2023-01-28T17:12:47;96942.19;;;0.40;97.17
56668;BME280;42542;48.360;10.958;2023-01-28T17:15:50;96948.44;;;0.37;97.13
56668;BME280;42542;48.360;10.958;2023-01-28T17:18:53;96943.97;;;0.39;97.08
56668;BME280;42542;48.360;10.958;2023-01-28T17:21:57;96954.56;;;0.38;97.65
56668;BME280;42542;48.360;10.958;2023-01-28T17:24:58;96951.06;;;0.37;97.46
56668;BME280;42542;48.360;10.958;2023-01-28T17:28:01;96955.47;;;0.37;97.33
56668;BME280;42542;48.360;10.958;2023-01-28T17:31:12;96959.81;;;0.38;98.01
56668;BME280;42542;48.360;10.958;2023-01-28T17:34:14;96960.66;;;0.38;98.32
56668;BME280;42542;48.360;10.958;2023-01-28T17:37:16;96957.19;;;0.38;97.40
56668;BME280;42542;48.360;10.958;2023-01-28T17:40:18;96962.38;;;0.39;97.73
56668;BME280;42542;48.360;10.958;2023-01-28T17:43:19;96970.25;;;0.39;97.87
56668;BME280;42542;48.360;10.958;2023-01-28T17:46:23;96973.75;;;0.40;97.93
56668;BME280;42542;48.360;10.958;2023-01-28T17:49:25;96972.81;;;0.41;97.96
56668;BME280;42542;48.360;10.958;2023-01-28T17:52:28;96962.28;;;0.41;97.99
56668;BME280;42542;48.360;10.958;2023-01-28T17:55:33;96969.25;;;0.42;97.97
56668;BME280;42542;48.360;10.958;2023-01-28T17:58:37;96971.09;;;0.40;98.32
56668;BME280;42542;48.360;10.958;2023-01-28T18:01:39;96971.88;;;0.42;97.98
56668;BME280;42542;48.360;10.958;2023-01-28T18:04:41;96970.09;;;0.43;98.31
56668;BME280;42542;48.360;10.958;2023-01-28T18:07:43;96982.41;;;0.42;98.48
56668;BME280;42542;48.360;10.958;2023-01-28T18:10:46;96981.56;;;0.42;98.77
56668;BME280;42542;48.360;10.958;2023-01-28T18:13:48;96982.56;;;0.39;98.60
56668;BME280;42542;48.360;10.958;2023-01-28T18:16:50;96986.13;;;0.38;98.20
56668;BME280;42542;48.360;10.958;2023-01-28T18:19:52;96982.56;;;0.39;98.85
56668;BME280;42542;48.360;10.958;2023-01-28T18:22:55;96977.28;;;0.39;98.59
56668;BME280;42542;48.360;10.958;2023-01-28T18:25:59;96985.97;;;0.41;99.31
56668;BME280;42542;48.360;10.958;2023-01-28T18:29:01;96985.97;;;0.41;98.73